createdAt,value
2022-11-05T00:01:14.153Z,4.23
2022-11-05T00:04:18.505Z,3.97
2022-11-05T00:07:46.472Z,3.93
2022-11-05T00:10:32.814Z,4.17
2022-11-05T00:13:37.680Z,3.60
2022-11-05T00:16:42.179Z,3.87
2022-11-05T00:19:28.070Z,3.50
2022-11-05T00:22:32.673Z,3.50
2022-11-05T00:25:19.303Z,3.20
2022-11-05T00:28:05.355Z,2.73
2022-11-05T00:30:51.288Z,3.80
2022-11-05T00:33:37.893Z,3.03
2022-11-05T00:36:24.073Z,3.33
2022-11-05T00:39:09.989Z,4.20
2022-11-05T00:42:15.518Z,3.80
2022-11-05T00:45:01.395Z,4.40
2022-11-05T00:48:05.807Z,3.93
2022-11-05T00:50:51.675Z,4.00
2022-11-05T00:53:37.627Z,3.67
2022-11-05T00:56:23.583Z,3.30
2022-11-05T00:59:09.774Z,3.67
2022-11-05T01:01:56.018Z,4.10
2022-11-05T01:04:41.833Z,3.73
2022-11-05T01:07:27.864Z,4.67
2022-11-05T01:10:14.021Z,3.83
2022-11-05T01:13:00.608Z,5.50
2022-11-05T01:15:47.003Z,4.23
2022-11-05T01:18:32.980Z,4.03
2022-11-05T01:21:18.824Z,4.40
2022-11-05T01:24:04.768Z,5.90
2022-11-05T01:26:50.810Z,4.43
2022-11-05T01:29:36.943Z,4.30
2022-11-05T01:32:22.788Z,4.53
2022-11-05T01:35:09.717Z,4.10
2022-11-05T01:37:55.953Z,4.10
2022-11-05T01:40:43.693Z,4.27
2022-11-05T01:43:45.168Z,3.50
2022-11-05T01:46:37.240Z,3.33
2022-11-05T01:49:29.412Z,4.10
2022-11-05T01:52:15.875Z,4.30
2022-11-05T01:55:03.099Z,3.73
2022-11-05T01:57:49.324Z,3.70
2022-11-05T02:00:35.727Z,4.23
2022-11-05T02:03:22.070Z,3.80
2022-11-05T02:06:09.556Z,3.53
2022-11-05T02:08:55.517Z,4.20
2022-11-05T02:11:41.685Z,4.40
2022-11-05T02:14:27.442Z,4.80
2022-11-05T02:17:32.568Z,6.53
2022-11-05T02:20:41.572Z,4.73
2022-11-05T02:23:33.837Z,5.93
2022-11-05T02:26:19.803Z,6.30
2022-11-05T02:29:05.522Z,6.73
2022-11-05T02:32:10.384Z,5.70
2022-11-05T02:35:03.098Z,6.43
2022-11-05T02:37:52.394Z,5.77
2022-11-05T02:40:47.399Z,5.90
2022-11-05T02:43:42.363Z,6.87
2022-11-05T02:46:34.396Z,7.17
2022-11-05T02:49:32.972Z,6.57
2022-11-05T02:52:41.539Z,6.13
2022-11-05T02:55:33.469Z,6.80
2022-11-05T02:58:19.625Z,6.67
2022-11-05T03:01:07.074Z,6.77
2022-11-05T03:04:03.213Z,7.30
2022-11-05T03:06:54.953Z,7.93
2022-11-05T03:09:56.748Z,6.07
2022-11-05T03:12:52.012Z,5.93
2022-11-05T03:15:47.691Z,7.47
2022-11-05T03:18:40.035Z,7.23
2022-11-05T03:21:38.115Z,6.77
2022-11-05T03:24:27.260Z,8.20
2022-11-05T03:27:15.020Z,7.00
2022-11-05T03:30:03.217Z,7.20
2022-11-05T03:32:55.259Z,7.43
2022-11-05T03:35:45.669Z,7.77
2022-11-05T03:38:33.794Z,6.73
2022-11-05T03:41:21.018Z,6.43
2022-11-05T03:44:07.730Z,6.57
2022-11-05T03:46:54.827Z,7.13
2022-11-05T03:49:44.160Z,6.70
2022-11-05T03:52:32.691Z,6.40
2022-11-05T03:55:18.790Z,6.10
2022-11-05T03:58:05.659Z,7.60
2022-11-05T04:00:51.489Z,8.47
2022-11-05T04:03:37.206Z,6.40
2022-11-05T04:06:41.726Z,6.67
2022-11-05T04:09:46.185Z,6.63
2022-11-05T04:12:50.707Z,6.83
2022-11-05T04:15:56.131Z,7.87
2022-11-05T04:18:42.550Z,6.80
2022-11-05T04:21:47.535Z,7.77
2022-11-05T04:24:33.274Z,7.33
2022-11-05T04:27:18.785Z,7.37
2022-11-05T04:30:20.718Z,7.00
2022-11-05T04:33:19.108Z,7.10
2022-11-05T04:36:05.060Z,7.70
2022-11-05T04:38:50.960Z,7.80
2022-11-05T04:41:36.485Z,8.03
2022-11-05T04:44:22.077Z,7.80
2022-11-05T04:47:07.974Z,8.10
2022-11-05T04:49:53.626Z,8.03
2022-11-05T04:52:40.585Z,8.90
2022-11-05T04:55:26.748Z,8.43
2022-11-05T04:58:13.253Z,10.00
2022-11-05T05:00:59.044Z,10.23
2022-11-05T05:03:46.839Z,12.43
2022-11-05T05:06:34.746Z,11.83
2022-11-05T05:09:20.578Z,12.50
2022-11-05T05:12:06.573Z,11.90
2022-11-05T05:14:52.130Z,15.63
2022-11-05T05:17:38.016Z,12.97
2022-11-05T05:20:42.142Z,15.60
2022-11-05T05:23:28.034Z,14.70
2022-11-05T05:26:13.903Z,15.47
2022-11-05T05:28:59.318Z,14.10
2022-11-05T05:31:45.556Z,15.80
2022-11-05T05:34:31.091Z,14.37
2022-11-05T05:37:16.733Z,14.37
2022-11-05T05:40:02.328Z,13.83
2022-11-05T05:42:48.198Z,15.57
2022-11-05T05:45:35.745Z,15.40
2022-11-05T05:48:21.734Z,17.27
2022-11-05T05:51:08.912Z,16.27
2022-11-05T05:53:56.785Z,16.43
2022-11-05T05:56:46.279Z,15.20
2022-11-05T05:59:31.894Z,16.33
2022-11-05T06:02:17.566Z,16.37
2022-11-05T06:05:03.860Z,17.97
2022-11-05T06:07:57.894Z,16.87
2022-11-05T06:10:43.742Z,16.13
2022-11-05T06:13:29.922Z,15.40
2022-11-05T06:16:17.663Z,15.50
2022-11-05T06:19:03.672Z,15.70
2022-11-05T06:21:49.152Z,17.00
2022-11-05T06:24:34.824Z,18.43
2022-11-05T06:27:20.474Z,14.83
2022-11-05T06:30:06.533Z,16.80
2022-11-05T06:32:52.149Z,16.60
2022-11-05T06:35:37.765Z,16.40
2022-11-05T06:38:23.515Z,16.27
2022-11-05T06:41:10.650Z,15.27
2022-11-05T06:43:56.603Z,13.57
2022-11-05T06:46:48.171Z,13.90
2022-11-05T06:49:34.608Z,13.30
2022-11-05T06:52:20.634Z,13.53
2022-11-05T06:55:06.588Z,12.57
2022-11-05T06:57:52.630Z,15.70
2022-11-05T07:00:38.407Z,14.30
2022-11-05T07:03:24.129Z,14.43
2022-11-05T07:06:09.995Z,14.23
2022-11-05T07:08:55.878Z,14.63
2022-11-05T07:11:41.562Z,15.20
2022-11-05T07:14:27.344Z,14.67
2022-11-05T07:17:13.205Z,16.23
2022-11-05T07:19:59.200Z,16.27
2022-11-05T07:22:45.115Z,13.73
2022-11-05T07:25:32.250Z,13.93
2022-11-05T07:28:18.031Z,15.70
2022-11-05T07:31:03.872Z,15.57
2022-11-05T07:33:49.911Z,15.63
2022-11-05T07:36:35.765Z,13.07
2022-11-05T07:39:21.564Z,12.90
2022-11-05T07:42:07.638Z,15.90
2022-11-05T07:44:58.566Z,13.00
2022-11-05T07:47:49.454Z,12.23
2022-11-05T07:50:36.781Z,12.30
2022-11-05T07:53:22.778Z,12.80
2022-11-05T07:56:08.524Z,14.90
2022-11-05T07:58:54.337Z,14.77
2022-11-05T08:01:40.426Z,14.60
2022-11-05T08:04:26.396Z,15.10
2022-11-05T08:07:12.199Z,16.57
2022-11-05T08:09:59.948Z,15.50
2022-11-05T08:12:46.632Z,15.50
2022-11-05T08:15:32.619Z,13.77
2022-11-05T08:18:18.963Z,14.30
2022-11-05T08:21:05.746Z,14.60
2022-11-05T08:23:52.942Z,13.43
2022-11-05T08:26:40.776Z,14.83
2022-11-05T08:29:26.469Z,12.70
2022-11-05T08:32:12.306Z,14.30
2022-11-05T08:34:58.186Z,11.50
2022-11-05T08:37:43.964Z,16.53
2022-11-05T08:40:30.840Z,14.80
2022-11-05T08:43:16.243Z,14.80
2022-11-05T08:46:02.348Z,14.63
2022-11-05T08:48:48.047Z,12.90
2022-11-05T08:51:33.917Z,16.20
2022-11-05T08:54:19.835Z,12.43
2022-11-05T08:57:06.793Z,12.93
2022-11-05T08:59:52.600Z,12.63
2022-11-05T09:02:38.269Z,12.67
2022-11-05T09:05:24.095Z,12.17
2022-11-05T09:08:11.807Z,11.17
2022-11-05T09:10:57.587Z,13.40
2022-11-05T09:13:43.379Z,11.33
2022-11-05T09:16:29.850Z,11.27
2022-11-05T09:19:15.674Z,11.70
2022-11-05T09:22:01.121Z,11.80
2022-11-05T09:24:47.923Z,10.60
2022-11-05T09:27:33.812Z,10.03
2022-11-05T09:30:19.569Z,10.57
2022-11-05T09:33:06.460Z,9.33
2022-11-05T09:35:52.659Z,10.00
2022-11-05T09:38:38.221Z,9.97
2022-11-05T09:41:28.787Z,12.30
2022-11-05T09:44:17.115Z,10.23
2022-11-05T09:47:06.414Z,12.07
2022-11-05T09:49:53.920Z,10.00
2022-11-05T09:52:39.755Z,10.10
2022-11-05T09:55:31.050Z,10.50
2022-11-05T09:58:22.154Z,9.70
2022-11-05T10:01:15.070Z,10.17
2022-11-05T10:04:02.538Z,11.03
2022-11-05T10:06:59.940Z,10.43
2022-11-05T10:09:47.836Z,9.07
2022-11-05T10:12:42.499Z,9.00
2022-11-05T10:15:38.624Z,8.20
2022-11-05T10:18:29.355Z,9.60
2022-11-05T10:21:17.137Z,9.50
2022-11-05T10:24:03.246Z,8.90
2022-11-05T10:26:51.117Z,9.77
2022-11-05T10:29:37.332Z,9.07
2022-11-05T10:32:31.438Z,10.40
2022-11-05T10:35:18.740Z,11.37
2022-11-05T10:38:04.182Z,9.90
2022-11-05T10:41:16.532Z,8.87
2022-11-05T10:44:14.716Z,11.27
2022-11-05T10:47:16.007Z,9.37
2022-11-05T10:50:03.797Z,10.03
2022-11-05T10:52:54.879Z,10.63
2022-11-05T10:56:01.451Z,8.30
2022-11-05T10:58:54.417Z,7.97
2022-11-05T11:01:40.512Z,6.27
2022-11-05T11:04:27.545Z,7.10
2022-11-05T11:07:21.602Z,7.30
2022-11-05T11:10:07.308Z,6.73
2022-11-05T11:12:53.621Z,6.80
2022-11-05T11:15:39.255Z,8.03
2022-11-05T11:18:38.844Z,7.80
2022-11-05T11:21:26.921Z,6.27
2022-11-05T11:24:20.666Z,5.90
2022-11-05T11:27:09.755Z,5.10
2022-11-05T11:30:02.467Z,5.27
2022-11-05T11:32:49.718Z,5.43
2022-11-05T11:35:37.564Z,5.53
2022-11-05T11:38:24.704Z,5.50
2022-11-05T11:41:21.325Z,5.37
2022-11-05T11:44:08.972Z,6.10
2022-11-05T11:46:57.326Z,4.90
2022-11-05T11:49:46.084Z,5.17
2022-11-05T11:52:36.431Z,5.10
2022-11-05T11:55:22.839Z,4.87
2022-11-05T11:58:08.980Z,4.20
2022-11-05T12:00:59.245Z,4.67
2022-11-05T12:03:49.807Z,4.60
2022-11-05T12:06:50.756Z,3.53
2022-11-05T12:09:39.309Z,4.07
2022-11-05T12:13:00.872Z,3.83
2022-11-05T12:15:49.400Z,4.07
2022-11-05T12:18:35.181Z,3.77
2022-11-05T12:21:51.395Z,4.20
2022-11-05T12:24:45.868Z,4.20
2022-11-05T12:27:50.419Z,4.17
2022-11-05T12:30:51.649Z,3.80
2022-11-05T12:33:56.191Z,4.73
2022-11-05T12:36:55.214Z,3.33
2022-11-05T12:40:04.353Z,3.80
2022-11-05T12:43:07.660Z,3.97
2022-11-05T12:46:05.694Z,3.50
2022-11-05T12:48:58.350Z,4.10
2022-11-05T12:52:02.912Z,4.10
2022-11-05T12:55:03.490Z,4.17
2022-11-05T12:57:52.255Z,4.50
2022-11-05T13:00:40.852Z,4.77
2022-11-05T13:03:41.089Z,4.37
2022-11-05T13:06:31.719Z,5.23
2022-11-05T13:09:19.910Z,5.53
2022-11-05T13:12:10.890Z,5.90
2022-11-05T13:15:01.683Z,5.60
2022-11-05T13:17:47.178Z,5.23
2022-11-05T13:20:40.637Z,6.60
2022-11-05T13:23:46.166Z,5.90
2022-11-05T13:26:39.329Z,5.10
2022-11-05T13:29:28.347Z,6.40
2022-11-05T13:32:29.368Z,5.30
2022-11-05T13:35:17.323Z,4.70
2022-11-05T13:38:25.322Z,4.73
2022-11-05T13:41:31.432Z,5.50
2022-11-05T13:44:27.449Z,5.90
2022-11-05T13:47:22.569Z,5.17
2022-11-05T13:50:20.637Z,5.93
2022-11-05T13:53:22.323Z,4.63
2022-11-05T13:56:22.553Z,5.60
2022-11-05T13:59:32.268Z,4.70
2022-11-05T14:02:29.172Z,5.53
2022-11-05T14:05:23.263Z,4.60
2022-11-05T14:08:17.561Z,3.87
2022-11-05T14:11:04.543Z,4.47
2022-11-05T14:13:51.925Z,4.60
2022-11-05T14:16:48.864Z,4.90
2022-11-05T14:19:50.393Z,4.90
2022-11-05T14:22:40.047Z,5.30
2022-11-05T14:25:26.447Z,4.23
2022-11-05T14:28:29.606Z,3.83
2022-11-05T14:31:54.548Z,3.17
2022-11-05T14:34:42.943Z,3.10
2022-11-05T14:37:48.141Z,3.40
2022-11-05T14:40:37.007Z,3.50
2022-11-05T14:43:24.093Z,2.87
2022-11-05T14:46:10.488Z,3.47
2022-11-05T14:49:05.165Z,3.00
2022-11-05T14:51:56.277Z,3.20
2022-11-05T14:54:50.431Z,3.53
2022-11-05T14:57:42.424Z,3.80
2022-11-05T15:00:36.510Z,3.47
2022-11-05T15:03:30.976Z,3.60
2022-11-05T15:06:27.226Z,2.70
2022-11-05T15:09:16.487Z,3.63
2022-11-05T15:12:24.665Z,3.10
2022-11-05T15:15:21.438Z,3.63
2022-11-05T15:18:29.088Z,3.27
2022-11-05T15:21:15.710Z,3.20
2022-11-05T15:24:02.366Z,3.20
2022-11-05T15:26:52.910Z,2.90
2022-11-05T15:29:38.865Z,2.60
2022-11-05T15:32:27.925Z,2.73
2022-11-05T15:35:25.219Z,3.53
2022-11-05T15:38:30.001Z,3.23
2022-11-05T15:41:16.828Z,2.80
2022-11-05T15:44:02.656Z,2.97
2022-11-05T15:46:49.650Z,3.40
2022-11-05T15:49:35.615Z,3.00
2022-11-05T15:52:36.963Z,3.17
2022-11-05T15:55:24.335Z,3.00
2022-11-05T15:58:11.472Z,3.17
2022-11-05T16:00:57.244Z,3.30
2022-11-05T16:03:42.887Z,3.00
2022-11-05T16:06:36.529Z,3.07
2022-11-05T16:09:27.031Z,3.70
2022-11-05T16:12:19.314Z,3.53
2022-11-05T16:15:10.915Z,3.40
2022-11-05T16:17:58.125Z,10.30
2022-11-05T16:20:59.686Z,7.20
2022-11-05T16:23:58.984Z,3.30
2022-11-05T16:29:59.414Z,3.00
2022-11-05T16:32:45.397Z,4.23
2022-11-05T16:35:31.225Z,4.00
2022-11-05T16:38:17.731Z,3.97
2022-11-05T16:41:03.663Z,3.93
2022-11-05T16:44:04.003Z,5.07
2022-11-05T16:46:50.137Z,4.50
2022-11-05T16:49:36.595Z,5.07
2022-11-05T16:52:22.380Z,4.53
2022-11-05T16:55:08.896Z,4.90
2022-11-05T16:57:55.935Z,5.30
2022-11-05T17:00:41.771Z,4.80
2022-11-05T17:03:27.361Z,4.67
2022-11-05T17:06:13.818Z,8.30
2022-11-05T17:08:59.342Z,5.70
2022-11-05T17:11:45.150Z,6.70
2022-11-05T17:14:30.655Z,5.97
2022-11-05T17:17:17.260Z,5.50
2022-11-05T17:20:03.008Z,5.90
2022-11-05T17:22:48.699Z,5.90
2022-11-05T17:25:35.387Z,6.77
2022-11-05T17:28:23.024Z,6.97
2022-11-05T17:31:10.495Z,8.43
2022-11-05T17:34:00.205Z,6.73
2022-11-05T17:36:47.398Z,7.10
2022-11-05T17:39:34.472Z,7.57
2022-11-05T17:42:19.932Z,7.13
2022-11-05T17:45:05.896Z,7.47
2022-11-05T17:47:52.572Z,6.97
2022-11-05T17:50:46.373Z,8.30
2022-11-05T17:53:31.932Z,8.37
2022-11-05T17:56:30.594Z,8.73
2022-11-05T17:59:19.752Z,9.07
2022-11-05T18:02:05.883Z,9.00
2022-11-05T18:04:52.037Z,9.20
2022-11-05T18:07:37.989Z,9.97
2022-11-05T18:10:25.404Z,10.90
2022-11-05T18:13:11.827Z,9.33
2022-11-05T18:15:57.642Z,10.80
2022-11-05T18:18:43.439Z,10.67
2022-11-05T18:21:30.471Z,11.13
2022-11-05T18:24:16.463Z,10.23
2022-11-05T18:27:02.029Z,10.27
2022-11-05T18:29:49.119Z,9.80
2022-11-05T18:32:34.786Z,10.40
2022-11-05T18:35:20.371Z,12.13
2022-11-05T18:38:06.098Z,10.97
2022-11-05T18:40:51.922Z,10.40
2022-11-05T18:43:38.325Z,10.17
2022-11-05T18:46:55.907Z,10.07
2022-11-05T18:49:29.985Z,10.90
2022-11-05T18:52:16.155Z,10.70
2022-11-05T18:55:05.498Z,11.27
2022-11-05T18:57:51.223Z,10.83
2022-11-05T19:00:39.150Z,12.37
2022-11-05T19:03:24.812Z,12.50
2022-11-05T19:06:10.573Z,12.60
2022-11-05T19:08:56.920Z,11.90
2022-11-05T19:11:42.797Z,14.47
2022-11-05T19:14:29.989Z,12.07
2022-11-05T19:17:16.621Z,11.43
2022-11-05T19:20:02.680Z,11.33
2022-11-05T19:22:48.154Z,12.63
2022-11-05T19:25:35.074Z,13.40
2022-11-05T19:28:20.955Z,12.90
2022-11-05T19:31:06.991Z,12.83
2022-11-05T19:33:53.255Z,10.80
2022-11-05T19:36:40.832Z,11.80
2022-11-05T19:39:26.609Z,12.00
2022-11-05T19:42:12.560Z,11.50
2022-11-05T19:45:06.869Z,11.70
2022-11-05T19:48:03.605Z,11.73
2022-11-05T19:50:49.611Z,12.10
2022-11-05T19:53:36.220Z,10.50
2022-11-05T19:56:26.357Z,11.83
2022-11-05T19:59:12.907Z,12.13
2022-11-05T20:01:58.842Z,10.90
2022-11-05T20:04:44.835Z,12.30
2022-11-05T20:07:32.566Z,11.80
2022-11-05T20:10:18.059Z,11.57
2022-11-05T20:13:03.707Z,10.80
2022-11-05T20:15:49.646Z,10.93
2022-11-05T20:18:35.398Z,10.67
2022-11-05T20:21:21.234Z,10.80
2022-11-05T20:24:07.182Z,10.83
2022-11-05T20:26:56.715Z,11.20
2022-11-05T20:29:42.390Z,10.33
2022-11-05T20:32:28.180Z,11.43
2022-11-05T20:35:14.047Z,10.90
2022-11-05T20:37:59.876Z,9.70
2022-11-05T20:40:45.893Z,9.60
2022-11-05T20:43:31.757Z,10.83
2022-11-05T20:46:19.529Z,10.53
2022-11-05T20:49:05.492Z,12.03
2022-11-05T20:51:51.778Z,11.87
2022-11-05T20:54:38.321Z,11.47
2022-11-05T20:57:24.352Z,10.37
2022-11-05T21:00:10.221Z,10.63
2022-11-05T21:02:56.221Z,11.33
2022-11-05T21:05:56.218Z,11.30
2022-11-05T21:08:41.958Z,11.10
2022-11-05T21:11:28.106Z,10.90
2022-11-05T21:14:14.047Z,10.50
2022-11-05T21:16:59.733Z,10.73
2022-11-05T21:19:45.596Z,11.13
2022-11-05T21:22:31.821Z,10.60
2022-11-05T21:25:17.667Z,10.60
2022-11-05T21:28:03.494Z,11.73
2022-11-05T21:30:49.447Z,10.87
2022-11-05T21:33:36.374Z,10.60
2022-11-05T21:36:21.890Z,12.93
2022-11-05T21:39:13.067Z,11.00
2022-11-05T21:41:59.616Z,10.50
2022-11-05T21:44:45.317Z,11.07
2022-11-05T21:47:31.852Z,10.80
2022-11-05T21:50:21.797Z,9.93
2022-11-05T21:53:28.482Z,10.03
2022-11-05T21:56:37.564Z,10.90
2022-11-05T21:59:42.503Z,11.23
2022-11-05T22:02:28.630Z,11.67
2022-11-05T22:05:14.595Z,9.87
2022-11-05T22:08:00.359Z,11.27
2022-11-05T22:10:46.147Z,11.47
2022-11-05T22:13:31.748Z,11.33
2022-11-05T22:16:18.350Z,10.53
2022-11-05T22:19:04.288Z,10.90
2022-11-05T22:21:50.272Z,9.80
2022-11-05T22:24:36.737Z,9.60
2022-11-05T22:27:22.705Z,10.57
2022-11-05T22:30:08.771Z,9.73
2022-11-05T22:32:54.342Z,10.27
2022-11-05T22:35:40.313Z,9.20
2022-11-05T22:38:26.180Z,10.43
2022-11-05T22:41:13.657Z,10.57
2022-11-05T22:43:59.667Z,10.00
2022-11-05T22:46:45.596Z,10.23
2022-11-05T22:49:31.725Z,12.90
2022-11-05T22:52:17.834Z,10.47
2022-11-05T22:55:06.014Z,9.67
2022-11-05T22:57:51.536Z,9.20
2022-11-05T23:00:38.120Z,9.90
2022-11-05T23:03:25.811Z,10.27
2022-11-05T23:06:31.333Z,9.70
2022-11-05T23:09:47.212Z,8.73
2022-11-05T23:12:34.837Z,9.83
2022-11-05T23:15:39.498Z,10.60
2022-11-05T23:18:44.029Z,10.10
2022-11-05T23:21:48.278Z,10.00
2022-11-05T23:24:34.231Z,10.63
2022-11-05T23:27:20.789Z,9.33
2022-11-05T23:30:09.362Z,11.00
2022-11-05T23:32:56.480Z,10.60
2022-11-05T23:36:01.133Z,9.80
2022-11-05T23:38:47.081Z,9.47
2022-11-05T23:41:51.627Z,9.80
2022-11-05T23:44:56.130Z,9.87
2022-11-05T23:48:00.644Z,9.73
2022-11-05T23:50:48.618Z,9.30
2022-11-05T23:53:35.387Z,9.50
2022-11-05T23:56:21.320Z,10.50
2022-11-05T23:59:07.117Z,9.80
